Time;durP1;ratioP1;P1;durP2;ratioP2;P2;SDS_P1;SDS_P2;PMS_P1;PMS_P2;Temp;Humidity;BMP_temperature;BMP_pressure;BME280_temperature;BME280_humidity;BME280_pressure;Samples;Min_cycle;Max_cycle;Signal;HPM_P1;HPM_P2
2021/01/14 00:01:51;;;;;;;11.43;5.63;;;;;;;1.76;94.22;99071.91;3565323;80;98021;-88
2021/01/14 00:06:53;;;;;;;13.47;6.67;;;;;;;1.84;94.65;99068.24;3571928;81;30756;-88
2021/01/14 00:11:54;;;;;;;11.57;5.77;;;;;;;1.86;94.59;99075.45;3566535;79;98269;-87
2021/01/14 00:16:55;;;;;;;14.23;5.80;;;;;;;1.89;94.25;99076.67;3575918;80;31708;-88
2021/01/14 00:21:57;;;;;;;13.63;6.83;;;;;;;1.93;94.52;99077.55;3566947;80;98358;-87
2021/01/14 00:26:58;;;;;;;9.97;4.37;;;;;;;1.99;94.35;99082.36;3575650;80;31718;-88
2021/01/14 00:31:59;;;;;;;12.00;5.07;;;;;;;1.99;94.14;99082.36;3560825;80;98104;-87
2021/01/14 00:42:19;;;;;;;9.10;4.07;;;;;;;1.76;94.07;99095.55;3570125;81;97726;-86
2021/01/14 00:47:20;;;;;;;10.60;4.50;;;;;;;1.70;94.27;99092.30;3567329;80;31743;-87
2021/01/14 00:52:21;;;;;;;7.40;3.83;;;;;;;1.69;94.38;99102.94;3569396;80;97946;-86
2021/01/14 00:57:22;;;;;;;8.70;3.93;;;;;;;1.71;94.37;99099.88;3574303;80;31749;-86
2021/01/14 01:02:23;;;;;;;7.90;3.00;;;;;;;1.77;94.40;99113.39;3561643;80;97665;-85
2021/01/14 01:07:24;;;;;;;7.83;2.80;;;;;;;1.78;94.54;99122.54;3613538;79;31901;-84
2021/01/14 01:12:25;;;;;;;4.33;2.10;;;;;;;1.76;94.28;99124.02;3600606;80;97954;-86
2021/01/14 01:17:32;;;;;;;6.13;2.23;;;;;;;1.67;94.27;99132.89;3615646;79;26912;-85
2021/01/14 01:22:33;;;;;;;4.67;2.47;;;;;;;1.59;94.43;99134.63;3598689;79;97782;-86
2021/01/14 01:27:35;;;;;;;6.97;3.20;;;;;;;1.60;94.43;99147.63;3555808;80;32644;-86
2021/01/14 01:32:36;;;;;;;5.70;2.50;;;;;;;1.61;94.53;99154.63;3602547;79;97783;-84
2021/01/14 01:37:37;;;;;;;5.83;2.23;;;;;;;1.70;94.67;99167.45;3506684;82;31828;-85
2021/01/14 01:42:38;;;;;;;5.37;2.47;;;;;;;1.77;94.42;99170.34;3642564;79;98466;-85
2021/01/14 01:47:39;;;;;;;6.43;2.60;;;;;;;1.81;94.41;99180.72;3606488;79;31765;-86
2021/01/14 01:52:41;;;;;;;7.43;3.50;;;;;;;1.77;94.41;99179.28;3618918;79;98037;-87
2021/01/14 01:57:42;;;;;;;6.73;3.10;;;;;;;1.73;94.23;99184.38;3623340;80;32344;-86
2021/01/14 02:02:43;;;;;;;8.23;3.60;;;;;;;1.65;94.16;99184.75;3592729;79;97889;-85
2021/01/14 02:08:23;;;;;;;6.90;3.30;;;;;;;1.55;94.29;99194.78;3633331;79;31843;-85
2021/01/14 02:14:17;;;;;;;6.70;2.73;;;;;;;1.55;94.48;99192.06;3625688;79;98050;-87
2021/01/14 02:19:38;;;;;;;8.83;3.60;;;;;;;1.51;94.46;99202.02;3620058;79;98037;-86
2021/01/14 02:24:56;;;;;;;6.33;3.07;;;;;;;1.55;94.70;99206.98;3617014;79;31679;-86
2021/01/14 02:29:59;;;;;;;5.90;2.70;;;;;;;1.60;94.71;99222.97;3595883;79;97864;-86
2021/01/14 02:35:00;;;;;;;8.83;3.17;;;;;;;1.70;94.73;99231.95;3614083;80;31761;-87
2021/01/14 02:40:01;;;;;;;10.30;3.67;;;;;;;1.76;94.48;99242.00;3612302;79;97781;-87
2021/01/14 02:45:03;;;;;;;7.62;3.50;;;;;;;1.66;94.23;99244.66;3613917;80;32266;-88
2021/01/14 02:50:07;;;;;;;6.27;2.90;;;;;;;1.58;94.37;99248.88;3627499;80;97972;-88
2021/01/14 02:55:09;;;;;;;6.13;3.17;;;;;;;1.54;94.44;99260.19;3627911;79;31795;-87
2021/01/14 03:00:12;;;;;;;7.07;3.13;;;;;;;1.58;94.54;99262.44;3619467;79;98001;-87
2021/01/14 03:05:13;;;;;;;7.43;3.07;;;;;;;1.62;94.35;99274.94;3621916;79;32543;-87
2021/01/14 03:10:14;;;;;;;7.33;2.73;;;;;;;1.67;94.54;99280.12;3620691;79;97905;-87
2021/01/14 03:15:15;;;;;;;7.63;2.70;;;;;;;1.83;94.53;99283.66;3612545;80;31753;-87
2021/01/14 03:20:16;;;;;;;8.90;3.40;;;;;;;1.90;94.28;99296.61;3539791;80;98405;-87
2021/01/14 03:25:17;;;;;;;7.17;2.80;;;;;;;1.91;94.19;99303.63;3573137;81;31687;-87
2021/01/14 03:30:20;;;;;;;5.80;2.60;;;;;;;1.92;94.06;99308.69;3603182;80;97679;-86
2021/01/14 03:35:21;;;;;;;5.67;2.33;;;;;;;1.88;93.95;99310.54;3620703;79;31738;-86
2021/01/14 03:40:22;;;;;;;5.43;2.40;;;;;;;1.80;93.93;99317.47;3614571;79;98045;-86
2021/01/14 03:45:23;;;;;;;7.17;2.80;;;;;;;1.73;93.98;99331.63;3619919;80;31791;-85
2021/01/14 03:50:24;;;;;;;6.47;3.22;;;;;;;1.74;94.08;99339.17;3620464;79;97925;-85
2021/01/14 03:55:25;;;;;;;8.13;3.50;;;;;;;1.79;94.19;99342.99;3615573;79;30446;-85
2021/01/14 04:00:26;;;;;;;8.27;3.57;;;;;;;1.88;94.25;99360.72;3635352;79;98068;-86
2021/01/14 04:05:27;;;;;;;14.27;6.37;;;;;;;1.98;94.05;99364.28;3627648;79;31189;-85
2021/01/14 04:10:28;;;;;;;14.03;7.03;;;;;;;1.94;93.75;99367.48;3596947;79;98369;-85
2021/01/14 04:15:29;;;;;;;18.57;8.63;;;;;;;1.85;93.79;99383.66;3591037;80;26347;-86
2021/01/14 04:20:30;;;;;;;17.67;8.77;;;;;;;1.80;93.86;99392.84;3584601;80;98288;-86
2021/01/14 04:25:32;;;;;;;21.70;11.00;;;;;;;1.67;93.92;99410.84;3585844;79;35007;-86
2021/01/14 04:30:35;;;;;;;23.73;11.63;;;;;;;1.56;94.26;99423.30;3601386;80;98469;-86
2021/01/14 04:35:47;;;;;;;24.30;12.17;;;;;;;1.47;94.42;99439.69;3612899;79;35260;-87
2021/01/14 04:41:04;;;;;;;27.10;13.20;;;;;;;1.47;94.72;99443.75;3571146;78;98124;-86
2021/01/14 04:46:08;;;;;;;30.47;14.93;;;;;;;1.42;94.97;99464.89;3599187;79;34984;-86
2021/01/14 04:51:16;;;;;;;29.70;14.05;;;;;;;1.41;95.02;99468.16;3490517;81;98329;-86
2021/01/14 04:56:19;;;;;;;38.53;17.17;;;;;;;1.43;95.32;99486.22;3508865;81;35876;-86
2021/01/14 05:01:28;;;;;;;41.70;20.10;;;;;;;1.45;95.30;99489.40;3551967;81;98562;-86
2021/01/14 05:06:34;;;;;;;43.93;20.40;;;;;;;1.45;95.28;99490.75;3558371;81;35000;-86
2021/01/14 05:11:44;;;;;;;44.37;20.40;;;;;;;1.37;95.22;99512.55;3561825;80;98399;-85
2021/01/14 05:16:49;;;;;;;43.33;19.47;;;;;;;1.31;95.50;99523.39;3572396;80;34991;-86
2021/01/14 05:21:53;;;;;;;39.73;18.60;;;;;;;1.20;95.59;99535.80;3596269;79;98473;-86
2021/01/14 05:26:54;;;;;;;43.07;19.20;;;;;;;1.20;95.73;99544.70;3563025;79;34998;-86
2021/01/14 05:31:55;;;;;;;43.87;18.30;;;;;;;1.20;95.82;99550.13;3580910;79;98255;-86
2021/01/14 05:37:03;;;;;;;38.77;17.87;;;;;;;1.28;95.94;99564.16;3588431;81;34945;-87
2021/01/14 05:42:08;;;;;;;41.47;19.03;;;;;;;1.33;95.75;99569.91;3607427;80;98376;-86
2021/01/14 05:47:26;;;;;;;34.17;15.90;;;;;;;1.36;95.72;99587.64;3596364;81;35045;-87
2021/01/14 05:52:31;;;;;;;35.55;16.00;;;;;;;1.36;95.63;99609.33;3594652;79;98320;-86
2021/01/14 05:57:35;;;;;;;37.43;15.50;;;;;;;1.38;95.51;99627.39;3590214;79;35365;-86
2021/01/14 06:02:36;;;;;;;28.75;13.93;;;;;;;1.31;95.24;99637.23;3562740;80;98348;-86
2021/01/14 06:07:40;;;;;;;34.93;13.97;;;;;;;1.17;95.17;99655.69;3559409;81;35058;-87
2021/01/14 06:12:50;;;;;;;34.23;13.88;;;;;;;1.12;95.40;99661.31;3516536;81;98408;-86
2021/01/14 06:17:51;;;;;;;35.30;14.10;;;;;;;1.14;95.19;99673.41;3532251;81;35550;-87
2021/01/14 06:22:56;;;;;;;33.90;16.40;;;;;;;1.16;95.31;99687.98;3512443;81;98383;-87
2021/01/14 06:27:57;;;;;;;39.23;16.43;;;;;;;1.19;95.23;99701.66;3521905;82;35002;-87
2021/01/14 06:33:01;;;;;;;32.13;16.10;;;;;;;1.28;95.38;99711.86;3492245;81;98538;-87
2021/01/14 06:38:06;;;;;;;33.90;15.83;;;;;;;1.29;95.39;99730.26;3519277;82;35026;-87
2021/01/14 06:43:12;;;;;;;29.67;14.47;;;;;;;1.29;95.43;99739.20;3486892;81;98069;-87
2021/01/14 06:48:15;;;;;;;35.58;14.80;;;;;;;1.31;95.38;99754.55;3525572;81;26241;-87
2021/01/14 06:53:20;;;;;;;33.63;15.85;;;;;;;1.30;95.33;99766.52;3507452;81;98403;-88
2021/01/14 06:58:23;;;;;;;39.83;16.67;;;;;;;1.34;95.53;99770.16;3505120;81;35092;-88
2021/01/14 07:03:25;;;;;;;37.40;16.80;;;;;;;1.48;95.61;99794.29;3512543;81;98258;-88
2021/01/14 07:08:39;;;;;;;33.10;15.10;;;;;;;1.61;95.44;99800.79;3579800;80;34989;-86
2021/01/14 07:13:50;;;;;;;35.73;14.20;;;;;;;1.71;95.23;99817.20;3604993;80;98263;-88
2021/01/14 07:18:51;;;;;;;33.93;15.63;;;;;;;1.67;94.88;99832.00;3599448;80;35154;-87
2021/01/14 07:24:18;;;;;;;33.03;15.07;;;;;;;1.65;95.04;99851.09;3595738;79;98087;-87
2021/01/14 07:29:16;;;;;;;37.07;16.20;;;;;;;1.60;94.79;99863.48;3583844;80;98131;-86
2021/01/14 07:34:43;;;;;;;42.50;17.23;;;;;;;1.51;94.79;99878.47;3613954;79;34959;-87
2021/01/14 07:39:57;;;;;;;36.83;16.33;;;;;;;1.48;95.01;99885.89;3593863;79;98178;-87
2021/01/14 07:45:02;;;;;;;37.13;15.93;;;;;;;1.48;95.04;99895.96;3608603;80;35023;-86
2021/01/14 07:50:28;;;;;;;36.60;15.20;;;;;;;1.57;95.01;99905.62;3551479;80;98553;-87
2021/01/14 07:55:37;;;;;;;35.13;15.63;;;;;;;1.69;94.95;99911.11;3549488;82;35125;-87
2021/01/14 08:00:40;;;;;;;34.60;15.78;;;;;;;1.71;94.79;99913.50;3595178;80;98490;-87
2021/01/14 08:06:06;;;;;;;38.80;16.80;;;;;;;1.83;94.69;99925.22;3544121;80;35556;-87
2021/01/14 08:11:14;;;;;;;37.98;16.62;;;;;;;1.85;94.52;99938.42;3593305;79;98570;-87
2021/01/14 08:16:35;;;;;;;40.00;17.23;;;;;;;1.86;94.35;99953.59;3561829;80;25919;-87
2021/01/14 08:21:36;;;;;;;44.67;19.15;;;;;;;1.84;94.35;99965.33;3614026;79;98506;-85
2021/01/14 08:26:57;;;;;;;38.50;17.77;;;;;;;1.88;94.21;99976.56;3550524;80;35219;-85
2021/01/14 08:31:59;;;;;;;36.57;15.83;;;;;;;1.94;94.39;99992.87;3602629;79;120941;-86
2021/01/14 08:37:01;;;;;;;40.13;15.43;;;;;;;2.06;94.07;99996.20;3547757;82;34972;-86
2021/01/14 08:42:08;;;;;;;35.55;14.85;;;;;;;2.08;93.74;100001.54;3609158;79;98673;-86
2021/01/14 08:47:09;;;;;;;35.23;14.70;;;;;;;2.19;93.93;100014.94;3576150;80;26500;-86
2021/01/14 08:57:14;;;;;;;36.10;14.80;;;;;;;2.28;93.29;100035.23;3600468;80;57939;-92
2021/01/14 09:02:21;;;;;;;30.83;12.63;;;;;;;2.26;93.09;100047.00;3656157;78;35014;-93
2021/01/14 09:07:22;;;;;;;25.87;10.90;;;;;;;2.07;92.53;100061.02;3488891;79;35742;-92
2021/01/14 09:12:26;;;;;;;24.87;10.60;;;;;;;1.97;92.67;100074.19;3509324;82;97961;-93
2021/01/14 09:17:40;;;;;;;25.93;10.37;;;;;;;2.09;92.91;100085.13;3487796;82;36118;-94
2021/01/14 09:22:41;;;;;;;21.17;9.63;;;;;;;2.19;92.47;100096.96;3516653;82;35051;-95
2021/01/14 09:27:42;;;;;;;22.70;9.80;;;;;;;2.17;91.74;100098.64;3513154;82;98574;-93
2021/01/14 09:33:14;;;;;;;22.47;11.00;;;;;;;2.31;92.24;100114.13;3458711;82;35031;-94
2021/01/14 09:43:26;;;;;;;26.75;11.20;;;;;;;2.50;91.55;100124.52;3565434;79;31770;-88
2021/01/14 09:48:33;;;;;;;24.50;10.90;;;;;;;2.58;91.51;100132.60;3554170;80;98773;-88
2021/01/14 09:54:00;;;;;;;24.60;11.20;;;;;;;2.56;90.86;100134.09;3562609;80;35214;-86
2021/01/14 09:59:40;;;;;;;28.12;12.58;;;;;;;2.67;91.36;100140.12;3541239;80;97579;-87
2021/01/14 10:05:56;;;;;;;31.17;13.40;;;;;;;2.79;91.16;100150.28;3579739;80;35011;-85
2021/01/14 10:10:42;;;;;;;33.87;14.23;;;;;;;2.85;91.08;100159.23;3529556;80;99433;-86
2021/01/14 10:16:09;;;;;;;35.63;16.50;;;;;;;2.88;90.65;100153.70;3436306;84;35633;-85
2021/01/14 10:21:21;;;;;;;33.33;15.30;;;;;;;3.05;90.36;100165.23;3311287;83;98093;-85
2021/01/14 10:26:42;;;;;;;;;;;;;;;;;;;;;
2021/01/14 10:31:46;;;;;;;22.57;10.57;;;;;;;3.01;89.94;100176.53;3507346;79;98310;-85
2021/01/14 10:52:11;;;;;;;26.75;12.88;;;;;;;2.77;90.58;100187.84;3343620;85;99877;-86
2021/01/14 10:57:12;;;;;;;27.87;13.23;;;;;;;2.84;89.90;100207.92;3361252;85;35066;-84
2021/01/14 11:02:13;;;;;;;28.57;14.30;;;;;;;2.83;89.95;100210.97;3347309;86;100681;-85
2021/01/14 11:07:14;;;;;;;29.53;13.33;;;;;;;2.92;90.29;100209.80;3362935;86;35472;-84
2021/01/14 11:12:31;;;;;;;32.10;14.03;;;;;;;2.91;89.67;100216.92;3282230;86;98288;-85
2021/01/14 11:17:41;;;;;;;29.60;14.13;;;;;;;2.89;90.03;100225.40;3290787;87;25497;-84
2021/01/14 11:22:46;;;;;;;29.10;13.43;;;;;;;2.70;89.67;100227.78;3290715;87;35585;-84
2021/01/14 11:28:17;;;;;;;25.73;12.33;;;;;;;2.59;90.03;100235.27;3302796;85;98196;-85
2021/01/14 11:33:43;;;;;;;27.40;12.27;;;;;;;2.46;89.71;100237.09;3376972;85;35042;-84
2021/01/14 11:38:50;;;;;;;25.70;12.93;;;;;;;2.54;90.47;100238.17;3325915;85;99193;-83
2021/01/14 11:43:58;;;;;;;25.47;11.47;;;;;;;2.68;89.99;100234.09;3300522;87;35151;-84
2021/01/14 11:49:11;;;;;;;24.15;11.05;;;;;;;2.71;90.61;100237.52;3315534;85;98728;-84
2021/01/14 11:54:25;;;;;;;23.97;11.67;;;;;;;2.91;90.74;100239.47;3502628;82;35049;-84
2021/01/14 11:59:30;;;;;;;25.02;12.20;;;;;;;3.04;90.40;100240.31;3472472;82;98524;-84
2021/01/14 12:04:34;;;;;;;22.93;9.80;;;;;;;2.98;90.15;100239.73;3494415;81;35752;-83
2021/01/14 12:15:06;;;;;;;21.93;10.47;;;;;;;2.69;90.09;100238.39;3479111;83;35167;-83
2021/01/14 12:20:12;;;;;;;23.87;11.43;;;;;;;2.68;90.44;100250.97;3480481;82;98291;-83
2021/01/14 12:25:17;;;;;;;30.73;13.63;;;;;;;2.65;89.81;100254.33;3401217;84;26413;-82
2021/01/14 12:30:34;;;;;;;25.63;11.57;;;;;;;2.70;90.71;100259.58;3493075;82;98720;-83
2021/01/14 12:35:37;;;;;;;20.30;10.98;;;;;;;2.81;90.51;100260.23;3498836;81;25894;-83
2021/01/14 12:40:45;;;;;;;23.77;11.30;;;;;;;2.81;89.89;100254.00;3483987;81;98286;-83
2021/01/14 12:46:04;;;;;;;;;;;;;;;2.75;89.97;100256.12;3494423;83;26053;-84
2021/01/14 12:51:11;;;;;;;20.77;10.13;;;;;;;2.59;90.12;100261.89;3516641;81;84056;-83
2021/01/14 12:56:26;;;;;;;21.87;11.30;;;;;;;2.41;90.18;100274.52;3508211;82;35013;-83
2021/01/14 13:01:52;;;;;;;24.87;11.60;;;;;;;2.30;90.69;100279.50;3523167;81;98333;-83
2021/01/14 13:07:10;;;;;;;21.63;9.97;;;;;;;2.29;90.69;100288.00;3507767;81;35073;-84
2021/01/14 13:12:15;;;;;;;19.40;9.10;;;;;;;2.35;91.15;100296.97;3526609;81;97871;-83
2021/01/14 13:17:21;;;;;;;24.07;10.43;;;;;;;2.51;91.02;100292.59;3518351;82;35540;-83
2021/01/14 13:22:34;;;;;;;24.87;10.73;;;;;;;2.46;90.93;100298.20;3516444;81;97941;-82
2021/01/14 13:27:41;;;;;;;20.40;9.70;;;;;;;2.44;90.93;100298.30;3510859;81;98083;-83
2021/01/14 13:38:00;;;;;;;24.27;11.97;;;;;;;2.16;90.93;100303.36;3486159;81;98578;-84
2021/01/14 13:43:14;;;;;;;23.60;10.97;;;;;;;2.21;91.21;100320.03;3441491;82;26139;-83
2021/01/14 13:48:18;;;;;;;20.60;9.48;;;;;;;2.11;91.26;100333.40;3486003;81;97797;-83
2021/01/14 13:53:26;;;;;;;19.97;10.47;;;;;;;2.15;91.46;100334.35;3499016;82;35053;-83
2021/01/14 13:58:32;;;;;;;20.93;9.53;;;;;;;2.14;91.52;100344.95;3468460;82;98176;-83
2021/01/14 14:03:40;;;;;;;21.00;10.35;;;;;;;2.23;91.55;100357.14;3456740;82;26277;-83
2021/01/14 14:08:54;;;;;;;20.60;9.80;;;;;;;2.31;91.40;100355.80;3486880;82;98260;-84
2021/01/14 14:13:56;;;;;;;23.27;10.87;;;;;;;2.25;91.18;100358.99;3492173;82;34998;-84
2021/01/14 14:18:59;;;;;;;20.07;9.53;;;;;;;2.15;91.27;100368.84;3484354;81;98344;-84
2021/01/14 14:24:10;;;;;;;22.67;11.03;;;;;;;2.10;91.46;100377.14;3499872;81;35022;-84
2021/01/14 14:29:16;;;;;;;21.42;10.38;;;;;;;2.16;91.43;100382.64;3465339;82;98333;-84
2021/01/14 14:34:29;;;;;;;22.10;11.45;;;;;;;2.21;91.43;100381.92;3501399;82;26444;-84
2021/01/14 14:39:39;;;;;;;21.80;11.40;;;;;;;2.29;91.26;100392.53;3492692;82;98296;-84
2021/01/14 14:44:49;;;;;;;25.13;12.07;;;;;;;2.33;91.28;100409.20;3376050;85;35032;-84
2021/01/14 14:49:52;;;;;;;23.32;11.65;;;;;;;2.35;91.03;100419.17;3375603;84;98594;-83
2021/01/14 14:54:57;;;;;;;25.03;13.17;;;;;;;2.27;90.83;100429.50;3425215;83;45918;-84
2021/01/14 15:00:17;;;;;;;24.92;12.88;;;;;;;2.21;90.79;100440.84;3451276;83;98381;-85
2021/01/14 15:05:43;;;;;;;26.40;13.23;;;;;;;2.09;90.73;100452.91;3453427;83;35517;-84
2021/01/14 15:10:52;;;;;;;25.97;12.37;;;;;;;1.99;90.79;100451.88;3461275;82;98328;-84
2021/01/14 15:16:04;;;;;;;25.23;12.63;;;;;;;1.95;91.03;100458.50;3464989;83;35033;-86
2021/01/14 15:21:10;;;;;;;24.55;12.60;;;;;;;2.03;91.15;100465.05;3464078;83;98199;-85
2021/01/14 15:26:27;;;;;;;43.53;26.33;;;;;;;2.09;91.10;100477.34;3369504;86;35103;-85
2021/01/14 15:31:29;;;;;;;42.80;27.67;;;;;;;2.12;91.06;100474.78;3385517;84;99576;-86
2021/01/14 15:36:37;;;;;;;39.17;27.27;;;;;;;2.14;90.92;100486.11;3497457;82;35081;-85
2021/01/14 15:41:42;;;;;;;61.53;38.50;;;;;;;2.09;90.66;100484.91;3454893;83;98216;-85
2021/01/14 15:46:45;;;;;;;62.30;33.93;;;;;;;2.03;90.72;100485.41;3504364;82;34972;-85
2021/01/14 15:52:46;;;;;;;55.58;29.52;;;;;;;1.95;90.69;100487.55;3458837;82;98208;-84
2021/01/14 15:57:13;;;;;;;38.60;20.23;;;;;;;1.89;90.71;100488.82;3446152;82;35016;-85
2021/01/14 16:02:35;;;;;;;39.70;19.43;;;;;;;1.84;90.73;100492.50;3480683;81;98138;-84
2021/01/14 16:07:46;;;;;;;32.17;19.23;;;;;;;1.91;90.94;100498.24;3489361;82;98338;-85
2021/01/14 16:13:04;;;;;;;;;;;;;;;;;;;;;
2021/01/14 16:18:01;;;;;;;30.13;17.47;;;;;;;2.08;90.80;100505.61;3387186;81;98577;-84
2021/01/14 16:23:06;;;;;;;32.40;17.17;;;;;;;2.00;90.64;100505.03;3487439;82;35021;-85
2021/01/14 16:28:31;;;;;;;34.40;16.73;;;;;;;1.91;90.59;100515.10;3359091;82;98231;-85
2021/01/14 16:33:38;;;;;;;33.43;17.40;;;;;;;1.85;90.81;100515.80;3484614;83;35526;-85
2021/01/14 16:38:41;;;;;;;69.50;35.03;;;;;;;1.70;90.87;100501.89;3507690;81;98331;-85
2021/01/14 16:43:49;;;;;;;49.77;26.87;;;;;;;1.65;91.06;100527.81;3503905;82;35027;-86
2021/01/14 16:48:58;;;;;;;91.75;46.30;;;;;;;1.70;91.46;100535.23;3486051;81;98636;-85
2021/01/14 16:54:04;;;;;;;49.13;27.87;;;;;;;1.77;91.39;100535.59;3434218;83;34982;-86
2021/01/14 16:59:06;;;;;;;40.17;23.17;;;;;;;1.87;91.53;100543.98;3470847;81;98262;-86
2021/01/14 17:04:11;;;;;;;32.57;17.73;;;;;;;1.93;91.32;100548.95;3489863;82;35029;-84
2021/01/14 17:09:18;;;;;;;34.67;16.73;;;;;;;1.93;91.21;100557.09;3494637;81;98110;-85
2021/01/14 17:14:20;;;;;;;31.20;15.95;;;;;;;1.91;91.26;100549.02;3488862;82;26026;-85
2021/01/14 17:19:30;;;;;;;29.77;14.87;;;;;;;1.81;91.02;100559.59;3517709;81;98266;-85
2021/01/14 17:24:37;;;;;;;31.40;15.67;;;;;;;1.76;91.23;100560.31;3511762;81;35104;-86
2021/01/14 17:29:45;;;;;;;31.20;15.13;;;;;;;1.67;91.07;100567.62;3442828;83;98494;-86
2021/01/14 17:34:50;;;;;;;44.10;18.13;;;;;;;1.70;91.25;100562.94;3460796;82;35050;-85
2021/01/14 17:39:58;;;;;;;36.33;18.60;;;;;;;1.72;91.38;100571.00;3482714;81;98327;-85
2021/01/14 17:45:14;;;;;;;35.53;17.80;;;;;;;1.83;91.34;100572.30;3501745;82;35951;-85
2021/01/14 17:50:24;;;;;;;36.35;17.12;;;;;;;1.84;91.09;100577.97;3499872;81;98452;-86
2021/01/14 17:55:30;;;;;;;33.03;16.30;;;;;;;1.83;90.93;100589.13;3515413;82;35032;-85
2021/01/14 18:00:34;;;;;;;37.73;15.60;;;;;;;1.67;90.72;100590.67;3506324;81;98343;-85
2021/01/14 18:10:57;;;;;;;31.13;14.50;;;;;;;1.45;90.57;100609.73;3501087;81;98241;-85
2021/01/14 18:16:05;;;;;;;29.03;13.93;;;;;;;1.35;90.76;100622.20;3500044;82;35813;-85
2021/01/14 18:21:14;;;;;;;30.13;13.87;;;;;;;1.29;90.70;100624.80;3528275;81;98005;-85
2021/01/14 18:26:30;;;;;;;32.20;15.60;;;;;;;1.23;90.73;100633.63;3509918;82;35157;-85
2021/01/14 18:31:31;;;;;;;30.63;13.27;;;;;;;1.26;90.53;100647.13;3496282;80;98133;-83
2021/01/14 18:36:53;;;;;;;31.00;14.13;;;;;;;1.18;90.44;100645.95;3488142;82;35055;-84
2021/01/14 18:42:00;;;;;;;30.30;14.30;;;;;;;1.12;90.44;100648.55;3496836;81;98132;-85
2021/01/14 18:47:07;;;;;;;27.50;12.83;;;;;;;1.17;90.55;100651.68;3473421;82;35062;-85
2021/01/14 18:52:19;;;;;;;28.30;14.03;;;;;;;1.13;90.54;100655.56;3505541;81;97399;-84
2021/01/14 18:57:26;;;;;;;29.33;13.57;;;;;;;1.17;90.13;100653.84;3482145;82;36488;-85
2021/01/14 19:02:35;;;;;;;27.87;13.13;;;;;;;1.22;90.21;100656.98;3501781;81;98205;-86
2021/01/14 19:07:51;;;;;;;26.93;13.47;;;;;;;1.27;90.06;100667.70;3483109;81;107852;-85
2021/01/14 19:12:44;;;;;;;26.55;12.93;;;;;;;1.28;89.84;100655.20;3511500;81;26259;-84
2021/01/14 19:18:01;;;;;;;26.03;12.03;;;;;;;1.19;89.82;100663.00;3471646;82;98389;-87
2021/01/14 19:23:09;;;;;;;;;;;;;;;1.14;89.70;100664.48;3511305;81;26612;-86
2021/01/14 19:28:10;;;;;;;;;;;;;;;1.10;89.48;100657.52;3481382;81;84195;-85
2021/01/14 19:33:23;;;;;;;34.67;14.93;;;;;;;1.16;89.29;100629.19;3486628;83;35560;-86
2021/01/14 19:38:30;;;;;;;48.87;21.27;;;;;;;1.08;89.46;100638.08;3450080;82;99287;-86
2021/01/14 19:43:42;;;;;;;45.93;20.67;;;;;;;0.97;89.90;100645.39;3489060;83;35063;-86
2021/01/14 19:48:49;;;;;;;33.73;16.50;;;;;;;0.95;89.80;100687.73;3473086;81;98322;-86
2021/01/14 19:54:04;;;;;;;;;;;;;;;;;;;;;
2021/01/14 19:59:21;;;;;;;;;;;;;;;;;;;;;
2021/01/14 20:04:13;;;;;;;26.30;12.33;;;;;;;1.11;89.69;100680.02;3459008;81;26005;-85
2021/01/14 20:09:23;;;;;;;34.65;13.22;;;;;;;1.10;89.69;100689.27;3515245;81;98426;-88
2021/01/14 20:14:55;;;;;;;;;;;;;;;;;;;;;
2021/01/14 20:19:51;;;;;;;29.27;14.63;;;;;;;1.12;89.37;100696.52;3514127;81;98678;-88
2021/01/14 20:24:57;;;;;;;31.97;15.67;;;;;;;1.03;88.89;100696.46;3501136;81;35059;-88
2021/01/14 20:30:14;;;;;;;53.45;22.22;;;;;;;0.98;88.81;100700.64;3472554;81;98775;-88
2021/01/14 20:35:15;;;;;;;24.37;10.87;;;;;;;0.93;88.78;100706.75;3500982;79;57657;-96
2021/01/14 20:40:16;;;;;;;43.50;17.70;;;;;;;0.92;88.96;100698.35;3724792;77;98231;-95
2021/01/14 20:45:18;;;;;;;43.13;18.47;;;;;;;0.94;89.02;100705.06;3717486;78;25909;-96
2021/01/14 20:50:19;;;;;;;39.27;18.13;;;;;;;0.97;89.22;100698.23;3717637;78;98090;-96
2021/01/14 20:55:20;;;;;;;41.02;19.37;;;;;;;1.02;89.35;100707.61;3726499;78;35523;-96
2021/01/14 21:00:22;;;;;;;53.13;23.02;;;;;;;1.08;89.36;100710.44;3725236;78;98331;-95
2021/01/14 21:05:23;;;;;;;48.43;23.33;;;;;;;1.17;89.17;100718.09;3725681;78;34927;-96
2021/01/14 21:10:24;;;;;;;41.33;21.20;;;;;;;1.23;89.16;100708.18;3716658;78;97537;-96
2021/01/14 21:15:26;;;;;;;47.07;23.17;;;;;;;1.26;88.96;100703.48;3730070;78;35017;-96
2021/01/14 21:20:27;;;;;;;49.93;24.10;;;;;;;1.24;88.99;100705.71;3719120;78;98154;-96
2021/01/14 21:25:28;;;;;;;57.53;26.23;;;;;;;1.25;88.85;100695.65;3717883;78;34903;-96
2021/01/14 21:30:29;;;;;;;52.73;24.00;;;;;;;1.28;88.89;100691.80;3731966;78;97522;-96
2021/01/14 21:35:30;;;;;;;62.37;33.87;;;;;;;1.25;88.91;100684.27;3722861;78;35160;-96
2021/01/14 21:40:33;;;;;;;48.47;25.90;;;;;;;1.12;88.74;100691.92;3706015;78;97555;-96
2021/01/14 21:45:34;;;;;;;48.47;27.23;;;;;;;1.18;89.39;100692.58;3709144;78;34926;-96
2021/01/14 21:50:35;;;;;;;46.47;23.37;;;;;;;1.28;89.11;100696.40;3698303;78;97526;-96
2021/01/14 21:55:36;;;;;;;44.13;22.87;;;;;;;1.27;89.38;100691.52;3703154;78;35528;-96
2021/01/14 22:00:37;;;;;;;39.57;18.43;;;;;;;1.34;89.52;100692.45;3699553;78;98234;-96
2021/01/14 22:05:38;;;;;;;40.17;19.23;;;;;;;1.15;89.36;100689.93;3708772;78;35599;-96
2021/01/14 22:10:39;;;;;;;44.87;19.97;;;;;;;1.15;89.57;100699.41;3694191;78;97554;-96
2021/01/14 22:15:40;;;;;;;36.63;18.60;;;;;;;1.10;89.71;100698.75;3712155;78;35463;-95
2021/01/14 22:20:41;;;;;;;35.60;17.07;;;;;;;1.09;89.94;100707.42;3686656;78;97511;-96
2021/01/14 22:25:42;;;;;;;38.13;18.77;;;;;;;1.12;90.10;100716.31;3711500;79;33993;-95
2021/01/14 22:30:43;;;;;;;34.07;17.57;;;;;;;1.19;90.36;100714.50;3642806;78;98193;-96
2021/01/14 22:35:44;;;;;;;32.73;15.23;;;;;;;1.30;90.57;100718.58;3620082;79;32627;-95
2021/01/14 22:40:47;;;;;;;26.50;13.28;;;;;;;1.24;90.40;100715.74;3636598;78;98344;-96
2021/01/14 22:45:48;;;;;;;31.63;14.90;;;;;;;1.26;90.52;100714.90;3628558;79;26457;-96
2021/01/14 22:50:49;;;;;;;34.37;15.43;;;;;;;1.24;90.60;100721.16;3668791;78;97493;-96
2021/01/14 22:55:50;;;;;;;28.43;13.13;;;;;;;1.20;90.56;100716.92;3719628;78;32655;-96
2021/01/14 23:00:51;;;;;;;26.00;13.13;;;;;;;1.19;90.60;100720.74;3705387;78;98161;-96
2021/01/14 23:05:52;;;;;;;25.67;12.73;;;;;;;1.18;90.86;100716.98;3711808;78;32718;-96
2021/01/14 23:10:53;;;;;;;24.67;13.43;;;;;;;1.22;90.68;100726.11;3707928;77;97434;-96
2021/01/14 23:15:54;;;;;;;25.87;13.20;;;;;;;1.28;90.84;100726.23;3708971;78;32654;-96
2021/01/14 23:20:55;;;;;;;23.43;11.57;;;;;;;1.41;90.94;100718.02;3709804;78;98231;-96
2021/01/14 23:25:56;;;;;;;27.43;12.43;;;;;;;1.35;90.56;100723.33;3713599;78;32646;-96
2021/01/14 23:30:57;;;;;;;26.77;12.00;;;;;;;1.36;90.66;100715.44;3705704;78;98105;-96
2021/01/14 23:35:58;;;;;;;31.53;15.13;;;;;;;1.17;90.48;100718.91;3709740;78;32798;-96
2021/01/14 23:40:59;;;;;;;26.50;13.23;;;;;;;1.13;90.88;100718.45;3701723;78;97973;-96
2021/01/14 23:45:59;;;;;;;28.93;13.80;;;;;;;1.14;90.97;100716.80;3696738;78;26084;-96
2021/01/14 23:51:01;;;;;;;24.97;13.03;;;;;;;1.21;91.00;100720.44;3696839;77;97263;-96
2021/01/14 23:56:05;;;;;;;27.30;12.93;;;;;;;1.24;91.14;100723.33;3720735;78;25879;-96
